Time;durP1;ratioP1;P1;durP2;ratioP2;P2;SDS_P1;SDS_P2;PMS_P1;PMS_P2;Temp;Humidity;BMP_temperature;BMP_pressure;BME280_temperature;BME280_humidity;BME280_pressure;Samples;Min_cycle;Max_cycle;Signal;HPM_P1;HPM_P2
2022/05/26 00:00:12;;;;;;;2.05;0.68;;;;;;;17.11;51.26;100676.31;5047306;28;20049;-74
2022/05/26 00:02:39;;;;;;;2.83;0.70;;;;;;;17.18;51.59;100674.03;5046166;28;20048;-73
2022/05/26 00:05:06;;;;;;;1.42;0.60;;;;;;;17.21;51.40;100673.84;5035304;28;20063;-73
2022/05/26 00:07:33;;;;;;;1.35;0.70;;;;;;;17.19;51.26;100676.63;5041148;28;20037;-74
2022/05/26 00:10:00;;;;;;;1.30;0.60;;;;;;;17.17;51.54;100678.53;5043135;28;20096;-74
2022/05/26 00:12:27;;;;;;;2.50;0.60;;;;;;;17.14;51.54;100677.91;5037533;28;20405;-76
2022/05/26 00:14:54;;;;;;;3.28;0.70;;;;;;;17.01;51.70;100660.97;5041585;28;20076;-75
2022/05/26 00:17:21;;;;;;;2.30;0.77;;;;;;;17.07;51.75;100680.16;5040726;28;20049;-75
2022/05/26 00:19:48;;;;;;;2.38;0.73;;;;;;;16.91;51.94;100660.78;5045933;28;20146;-74
2022/05/26 00:22:17;;;;;;;2.75;0.90;;;;;;;17.03;51.80;100675.97;5047852;28;20045;-75
2022/05/26 00:24:44;;;;;;;4.18;0.77;;;;;;;16.99;51.65;100668.28;5049100;28;20130;-74
2022/05/26 00:27:10;;;;;;;1.63;0.60;;;;;;;17.06;51.70;100674.91;5044280;28;20048;-75
2022/05/26 00:29:38;;;;;;;1.10;0.50;;;;;;;17.08;51.67;100681.88;5049471;28;20045;-75
2022/05/26 00:32:06;;;;;;;2.22;0.85;;;;;;;16.99;51.64;100671.81;5042180;28;20044;-77
2022/05/26 00:34:34;;;;;;;2.05;0.70;;;;;;;17.08;51.81;100681.00;5046640;28;20053;-76
2022/05/26 00:37:02;;;;;;;0.95;0.50;;;;;;;17.05;51.98;100684.75;5047884;28;20076;-76
2022/05/26 00:39:29;;;;;;;1.50;0.60;;;;;;;17.12;51.99;100683.38;5047631;28;20099;-76
2022/05/26 00:42:01;;;;;;;1.00;0.90;;;;;;;17.21;51.74;100689.03;5044375;28;20053;-75
2022/05/26 00:44:28;;;;;;;3.92;0.90;;;;;;;17.22;51.60;100694.28;5046252;28;20045;-76
2022/05/26 00:47:02;;;;;;;0.82;0.50;;;;;;;17.26;51.58;100689.59;5046640;28;20053;-76
2022/05/26 00:49:38;;;;;;;1.13;0.70;;;;;;;17.03;51.63;100653.72;5044764;28;20049;-74
2022/05/26 00:52:08;;;;;;;0.93;0.70;;;;;;;17.01;51.46;100660.97;5046018;28;20451;-75
2022/05/26 00:54:37;;;;;;;1.80;0.95;;;;;;;17.02;51.69;100679.59;5049404;28;20132;-76
2022/05/26 00:57:18;;;;;;;3.20;0.70;;;;;;;16.92;52.21;100686.56;5046972;28;20393;-77
2022/05/26 01:00:00;;;;;;;1.67;0.70;;;;;;;16.86;52.69;100684.28;5048647;28;20045;-76
2022/05/26 01:02:33;;;;;;;2.42;0.80;;;;;;;16.87;52.96;100687.81;5057210;28;20102;-76
2022/05/26 01:05:11;;;;;;;1.13;0.73;;;;;;;16.79;52.98;100683.03;5046123;28;20056;-76
2022/05/26 01:07:39;;;;;;;2.03;0.60;;;;;;;16.67;53.40;100690.06;5052162;28;20399;-76
2022/05/26 01:10:09;;;;;;;2.38;0.70;;;;;;;16.60;53.60;100693.22;5049849;28;20041;-75
2022/05/26 01:12:35;;;;;;;1.00;0.57;;;;;;;16.48;53.56;100668.16;5057574;28;20051;-76
2022/05/26 01:15:09;;;;;;;2.50;0.77;;;;;;;16.63;54.14;100693.91;5046299;28;20055;-74
2022/05/26 01:18:21;;;;;;;0.98;0.63;;;;;;;16.63;54.02;100698.38;5056435;28;20064;-74
2022/05/26 01:20:54;;;;;;;2.08;0.75;;;;;;;16.58;54.24;100697.78;5046241;28;20061;-76
2022/05/26 01:23:30;;;;;;;1.60;0.77;;;;;;;16.49;54.42;100694.78;5052792;28;20583;-75
2022/05/26 01:25:59;;;;;;;3.53;0.80;;;;;;;16.45;54.79;100695.94;5056895;28;20133;-74
2022/05/26 01:28:42;;;;;;;3.40;0.70;;;;;;;16.51;54.70;100696.50;5056086;28;20105;-75
2022/05/26 01:31:39;;;;;;;1.30;0.70;;;;;;;16.36;54.73;100671.66;5055197;28;20120;-75
2022/05/26 01:34:31;;;;;;;1.58;0.57;;;;;;;16.43;54.82;100692.50;5050422;28;20087;-74
2022/05/26 01:37:20;;;;;;;2.35;1.13;;;;;;;16.44;54.97;100699.56;5047898;28;20053;-75
2022/05/26 01:39:51;;;;;;;2.53;0.80;;;;;;;16.29;55.10;100679.22;5048131;28;20052;-75
2022/05/26 01:42:38;;;;;;;1.52;0.70;;;;;;;16.40;55.20;100706.06;5050212;28;20098;-72
2022/05/26 01:45:21;;;;;;;1.45;0.60;;;;;;;16.41;55.21;100705.13;5052816;28;20060;-74
2022/05/26 01:48:13;;;;;;;2.05;1.00;;;;;;;16.48;55.09;100703.78;5046885;28;20076;-74
2022/05/26 01:50:46;;;;;;;0.90;0.52;;;;;;;16.48;55.08;100693.06;5050883;28;20404;-76
2022/05/26 01:53:49;;;;;;;2.20;0.70;;;;;;;16.45;54.91;100690.59;5045861;28;20072;-74
2022/05/26 01:56:26;;;;;;;0.80;0.55;;;;;;;16.32;55.18;100679.00;5050544;28;20798;-75
2022/05/26 01:59:03;;;;;;;2.35;0.88;;;;;;;16.36;55.10;100693.03;5049936;28;20049;-74
2022/05/26 02:01:35;;;;;;;2.33;0.60;;;;;;;16.27;55.56;100691.81;5052685;28;20574;-76
2022/05/26 02:04:08;;;;;;;3.92;0.80;;;;;;;16.23;55.53;100698.31;5051920;28;20061;-75
2022/05/26 02:06:41;;;;;;;1.80;0.50;;;;;;;16.01;55.98;100680.16;5041233;28;20357;-74
2022/05/26 02:09:12;;;;;;;3.70;0.70;;;;;;;16.09;55.97;100701.03;5057486;28;20064;-74
2022/05/26 02:11:47;;;;;;;2.75;0.70;;;;;;;16.04;56.34;100700.50;5045249;28;20426;-72
2022/05/26 02:14:20;;;;;;;2.10;0.60;;;;;;;15.93;56.60;100686.94;5054685;28;20078;-74
2022/05/26 02:16:58;;;;;;;2.28;0.60;;;;;;;15.90;56.80;100690.66;5051844;28;20069;-75
2022/05/26 02:19:34;;;;;;;1.88;0.65;;;;;;;15.89;56.97;100702.34;5054785;28;20045;-75
2022/05/26 02:22:21;;;;;;;1.95;0.73;;;;;;;15.79;57.01;100696.72;5049862;28;20640;-73
2022/05/26 02:25:11;;;;;;;0.80;0.75;;;;;;;15.79;57.17;100704.72;5052102;28;20355;-74
2022/05/26 02:27:38;;;;;;;2.13;0.73;;;;;;;15.66;57.38;100689.56;5057918;28;20580;-75
2022/05/26 02:30:06;;;;;;;4.38;0.80;;;;;;;15.74;57.83;100708.66;5062641;28;20492;-74
2022/05/26 02:32:42;;;;;;;0.85;0.60;;;;;;;15.75;57.75;100711.19;5054013;28;20503;-74
2022/05/26 02:35:13;;;;;;;1.40;0.77;;;;;;;15.59;57.60;100673.06;5057842;28;20057;-74
2022/05/26 02:37:42;;;;;;;1.75;0.75;;;;;;;15.64;57.45;100684.34;5049313;28;20140;-75
2022/05/26 02:40:10;;;;;;;1.42;0.52;;;;;;;15.73;57.46;100694.44;5049624;28;20094;-75
2022/05/26 02:42:47;;;;;;;1.40;0.60;;;;;;;15.74;57.51;100704.13;5053699;28;20076;-74
2022/05/26 02:45:18;;;;;;;1.88;0.50;;;;;;;15.76;57.58;100701.38;5046557;28;20132;-74
2022/05/26 02:48:11;;;;;;;1.13;0.57;;;;;;;15.83;57.27;100707.19;5056721;28;20045;-76
2022/05/26 02:50:58;;;;;;;1.73;0.70;;;;;;;15.84;57.27;100699.09;5044930;28;20053;-75
2022/05/26 02:53:44;;;;;;;1.67;0.60;;;;;;;15.86;57.02;100702.53;5047039;28;20048;-75
2022/05/26 02:56:20;;;;;;;2.15;1.10;;;;;;;15.89;56.92;100706.81;5044315;28;20473;-76
2022/05/26 02:59:11;;;;;;;1.58;0.60;;;;;;;15.77;57.06;100714.63;5046315;28;20068;-76
2022/05/26 03:01:56;;;;;;;2.47;0.70;;;;;;;15.57;57.61;100696.38;5048324;28;20045;-76
2022/05/26 03:04:34;;;;;;;4.03;0.70;;;;;;;15.49;57.87;100697.75;5051213;28;20111;-76
2022/05/26 03:07:09;;;;;;;2.20;0.75;;;;;;;15.55;58.37;100714.28;5049154;28;20405;-74
2022/05/26 03:09:38;;;;;;;2.33;0.68;;;;;;;15.49;58.48;100722.63;5045488;28;20182;-73
2022/05/26 03:12:21;;;;;;;4.90;0.82;;;;;;;15.41;58.59;100700.91;5042634;28;20053;-74
2022/05/26 03:14:48;;;;;;;1.65;0.63;;;;;;;15.58;58.56;100714.09;5046411;28;20769;-75
2022/05/26 03:17:15;;;;;;;1.83;0.70;;;;;;;15.71;58.16;100716.84;5052218;28;20406;-74
2022/05/26 03:19:41;;;;;;;3.03;0.88;;;;;;;15.68;57.98;100725.91;5049095;28;20056;-75
2022/05/26 03:22:09;;;;;;;2.47;0.93;;;;;;;15.56;58.58;100726.69;5053850;28;20056;-75
2022/05/26 03:24:36;;;;;;;4.15;0.85;;;;;;;15.43;58.84;100721.19;5048534;28;20061;-74
2022/05/26 03:27:04;;;;;;;3.97;0.68;;;;;;;15.34;59.31;100727.09;5051914;28;20065;-76
2022/05/26 03:29:31;;;;;;;1.42;0.63;;;;;;;15.14;59.68;100705.25;5055811;28;20052;-75
2022/05/26 03:31:57;;;;;;;1.15;0.77;;;;;;;15.26;60.08;100723.22;5051083;28;20049;-76
2022/05/26 03:42:43;;;;;;;3.90;0.70;;;;;;;15.02;60.49;100709.53;5042874;28;20160;-75
2022/05/26 03:45:12;;;;;;;2.13;0.70;;;;;;;14.99;60.94;100707.03;5049055;28;20055;-75
2022/05/26 03:47:39;;;;;;;3.15;0.68;;;;;;;15.20;60.92;100732.44;5044650;28;20049;-75
2022/05/26 03:50:07;;;;;;;2.08;0.77;;;;;;;15.24;60.70;100736.63;5038120;28;20111;-76
2022/05/26 03:52:34;;;;;;;2.05;0.80;;;;;;;15.24;60.72;100747.31;5050626;28;20492;-77
2022/05/26 03:55:01;;;;;;;2.35;0.85;;;;;;;15.22;60.90;100740.34;5053362;28;20095;-74
2022/05/26 03:57:30;;;;;;;3.17;0.70;;;;;;;15.19;61.32;100744.06;5050754;28;20049;-76
2022/05/26 03:59:58;;;;;;;2.28;0.70;;;;;;;15.21;61.01;100739.47;5056936;28;20140;-76
2022/05/26 04:02:25;;;;;;;4.97;0.80;;;;;;;15.18;61.57;100749.47;5044512;28;20500;-75
2022/05/26 04:04:52;;;;;;;4.22;0.88;;;;;;;15.18;61.27;100757.47;5047710;28;20102;-76
2022/05/26 04:07:19;;;;;;;1.67;0.70;;;;;;;15.21;61.36;100755.50;5051234;28;20049;-76
2022/05/26 04:09:46;;;;;;;1.48;0.85;;;;;;;15.27;61.38;100762.25;5049434;28;20115;-74
2022/05/26 04:12:13;;;;;;;1.33;0.70;;;;;;;15.36;61.41;100772.38;5045891;28;20136;-75
2022/05/26 04:14:39;;;;;;;2.40;0.77;;;;;;;15.54;60.88;100773.06;5049465;28;20041;-75
2022/05/26 04:17:06;;;;;;;3.20;0.60;;;;;;;15.69;60.61;100773.00;5048150;28;20217;-75
2022/05/26 04:19:35;;;;;;;0.70;0.55;;;;;;;15.75;59.98;100777.09;5055175;28;20128;-74
2022/05/26 04:22:23;;;;;;;2.78;0.60;;;;;;;15.72;60.01;100778.16;5048351;28;20052;-75
2022/05/26 04:24:54;;;;;;;1.52;0.85;;;;;;;15.67;60.41;100777.59;5049907;28;20045;-73
2022/05/26 04:27:23;;;;;;;1.02;0.68;;;;;;;15.70;60.44;100776.53;5047311;28;20147;-74
2022/05/26 04:29:49;;;;;;;2.60;0.80;;;;;;;15.76;60.24;100778.81;5052666;28;20524;-73
2022/05/26 04:32:17;;;;;;;20.73;6.40;;;;;;;15.81;60.12;100775.88;5048001;28;20056;-74
2022/05/26 04:34:48;;;;;;;11.60;3.35;;;;;;;15.83;59.87;100776.63;5048264;28;20060;-74
2022/05/26 04:37:16;;;;;;;1.77;0.88;;;;;;;15.82;60.03;100774.91;5046410;28;20114;-77
2022/05/26 04:39:44;;;;;;;3.10;0.57;;;;;;;15.62;60.43;100763.66;5057394;28;20424;-74
2022/05/26 04:42:11;;;;;;;1.08;0.50;;;;;;;15.57;61.02;100776.44;5043138;28;20464;-76
2022/05/26 04:44:40;;;;;;;1.10;0.68;;;;;;;15.51;61.34;100778.59;5042266;28;20079;-74
2022/05/26 04:47:08;;;;;;;3.00;0.90;;;;;;;15.53;61.38;100774.88;5046153;28;20061;-76
2022/05/26 04:49:37;;;;;;;1.65;0.70;;;;;;;15.47;61.60;100774.38;5057656;28;20076;-76
2022/05/26 04:52:07;;;;;;;2.28;0.95;;;;;;;15.27;61.80;100748.91;5044933;28;20146;-77
2022/05/26 04:54:36;;;;;;;2.78;0.90;;;;;;;15.30;62.47;100773.59;5036840;28;20041;-74
2022/05/26 04:57:04;;;;;;;2.38;0.60;;;;;;;15.28;62.77;100788.84;5044938;28;20064;-74
2022/05/26 04:59:32;;;;;;;1.15;0.50;;;;;;;15.32;63.05;100781.50;5064020;28;20860;-77
2022/05/26 05:02:00;;;;;;;1.88;0.60;;;;;;;15.34;63.03;100787.63;5048245;28;20435;-74
2022/05/26 05:04:28;;;;;;;1.38;0.88;;;;;;;15.45;62.70;100787.81;5048435;28;20072;-76
2022/05/26 05:06:55;;;;;;;2.83;0.88;;;;;;;15.60;62.31;100794.91;5049514;28;20121;-74
2022/05/26 05:09:23;;;;;;;2.60;0.70;;;;;;;15.70;61.82;100798.75;5055605;28;20041;-75
2022/05/26 05:11:50;;;;;;;1.85;0.70;;;;;;;15.82;61.48;100806.97;5047549;28;20083;-73
2022/05/26 05:14:18;;;;;;;1.33;0.77;;;;;;;15.83;61.40;100814.88;5047001;28;20132;-74
2022/05/26 05:16:45;;;;;;;1.77;0.77;;;;;;;15.76;61.58;100803.69;5042669;28;20135;-77
2022/05/26 05:19:17;;;;;;;2.60;0.60;;;;;;;15.77;61.76;100818.78;5055846;28;20385;-75
2022/05/26 05:21:56;;;;;;;2.30;0.70;;;;;;;15.81;61.52;100823.94;5050476;28;20132;-76
2022/05/26 05:24:30;;;;;;;0.40;0.40;;;;;;;15.88;61.42;100812.78;5047279;28;20060;-76
2022/05/26 05:27:10;;;;;;;1.73;0.60;;;;;;;15.90;61.50;100818.03;5049811;28;20075;-77
2022/05/26 05:29:40;;;;;;;4.23;1.07;;;;;;;15.86;61.77;100824.50;5047350;28;20047;-75
2022/05/26 05:32:17;;;;;;;3.00;0.90;;;;;;;15.71;62.52;100826.31;5048626;28;20569;-76
2022/05/26 05:34:55;;;;;;;1.27;0.60;;;;;;;15.77;63.02;100832.13;5046383;28;20072;-73
2022/05/26 05:37:22;;;;;;;1.23;0.70;;;;;;;15.61;62.59;100798.44;5048381;28;20055;-76
2022/05/26 05:39:48;;;;;;;1.83;0.63;;;;;;;15.93;62.69;100832.03;5053560;28;20059;-77
2022/05/26 05:42:16;;;;;;;2.55;0.93;;;;;;;15.89;62.50;100822.53;5041922;28;20051;-75
2022/05/26 05:44:43;;;;;;;2.00;0.60;;;;;;;15.85;62.67;100822.78;5047612;28;20048;-77
2022/05/26 05:47:09;;;;;;;1.63;0.50;;;;;;;15.93;62.68;100839.19;5051530;28;20053;-77
2022/05/26 05:49:36;;;;;;;0.70;0.60;;;;;;;16.03;62.98;100845.69;5050674;28;20481;-74
2022/05/26 05:52:09;;;;;;;1.17;0.43;;;;;;;16.16;62.01;100843.09;5045906;28;20477;-75
2022/05/26 05:54:37;;;;;;;1.00;0.50;;;;;;;16.20;62.27;100847.31;5059583;28;20036;-74
2022/05/26 05:57:04;;;;;;;6.70;1.13;;;;;;;16.26;61.91;100853.09;5046869;28;20083;-75
2022/05/26 05:59:30;;;;;;;1.75;0.70;;;;;;;16.32;61.81;100849.19;5058015;28;20685;-72
2022/05/26 06:01:57;;;;;;;2.17;0.88;;;;;;;16.37;61.67;100842.59;5042814;28;20060;-75
2022/05/26 06:04:44;;;;;;;1.60;0.88;;;;;;;16.57;61.29;100848.47;5044411;28;20073;-72
2022/05/26 06:07:21;;;;;;;2.10;0.77;;;;;;;16.79;61.21;100854.19;5046171;28;20084;-76
2022/05/26 06:09:49;;;;;;;3.22;0.80;;;;;;;17.21;59.55;100858.50;5049146;28;20049;-76
2022/05/26 06:12:17;;;;;;;2.08;1.02;;;;;;;17.54;59.16;100858.03;5045171;28;20045;-78
2022/05/26 06:14:44;;;;;;;1.67;0.70;;;;;;;18.04;56.80;100856.38;5053055;28;20133;-76
2022/05/26 06:17:11;;;;;;;1.83;0.75;;;;;;;18.19;55.45;100834.69;5044785;28;20057;-76
2022/05/26 06:19:39;;;;;;;3.00;0.60;;;;;;;18.45;55.30;100856.09;5047744;28;20554;-78
2022/05/26 06:22:10;;;;;;;2.33;0.65;;;;;;;18.23;55.66;100854.97;5048706;28;20060;-72
2022/05/26 06:24:38;;;;;;;1.52;0.60;;;;;;;18.21;56.99;100848.84;5033826;28;20037;-75
2022/05/26 06:29:55;;;;;;;4.25;0.80;;;;;;;18.08;55.68;100839.13;5046984;28;20114;-77
2022/05/26 06:38:00;;;;;;;3.60;0.80;;;;;;;17.33;58.28;100891.59;5054534;28;20273;-76
2022/05/26 06:40:31;;;;;;;3.63;0.60;;;;;;;17.35;59.37;100901.25;5052816;28;20079;-76
2022/05/26 06:43:00;;;;;;;1.23;0.60;;;;;;;17.02;58.68;100833.94;5046892;28;20077;-77
2022/05/26 06:45:27;;;;;;;2.25;0.40;;;;;;;17.39;58.91;100885.84;5041582;28;20057;-76
2022/05/26 06:47:54;;;;;;;2.85;0.70;;;;;;;17.37;58.89;100885.94;5044160;28;20417;-74
2022/05/26 06:50:21;;;;;;;3.08;0.55;;;;;;;17.42;58.94;100889.19;5051304;28;20048;-71
2022/05/26 06:52:48;;;;;;;1.50;0.57;;;;;;;17.39;58.90;100893.88;5048238;28;20048;-75
2022/05/26 06:55:14;;;;;;;2.25;0.52;;;;;;;17.34;58.88;100888.81;5050220;28;20520;-72
2022/05/26 06:57:41;;;;;;;2.90;0.77;;;;;;;17.41;58.60;100908.03;5050367;28;20053;-75
2022/05/26 07:00:12;;;;;;;2.20;0.65;;;;;;;17.48;58.46;100907.50;5049063;28;20507;-78
2022/05/26 07:02:39;;;;;;;1.02;0.50;;;;;;;17.52;58.31;100903.66;5051727;28;20052;-75
2022/05/26 07:05:07;;;;;;;2.83;0.50;;;;;;;17.54;58.03;100908.91;5049134;28;20078;-74
2022/05/26 07:07:35;;;;;;;2.53;0.40;;;;;;;17.74;57.55;100904.91;5046276;28;20094;-72
2022/05/26 07:10:03;;;;;;;4.65;0.70;;;;;;;17.93;57.21;100913.41;5043859;28;20389;-75
2022/05/26 07:12:34;;;;;;;2.20;0.57;;;;;;;17.78;56.99;100918.00;5051032;28;20033;-77
2022/05/26 07:15:00;;;;;;;1.73;0.50;;;;;;;17.47;57.85;100926.38;5053852;28;20091;-79
2022/05/26 07:17:27;;;;;;;1.27;0.47;;;;;;;17.41;59.16;100926.78;5050165;28;20463;-78
2022/05/26 07:19:55;;;;;;;1.35;0.60;;;;;;;17.34;58.86;100915.59;5048001;28;20037;-74
2022/05/26 07:22:23;;;;;;;1.60;0.57;;;;;;;17.50;59.34;100931.50;5047454;28;23456;-74
2022/05/26 07:24:51;;;;;;;2.22;0.70;;;;;;;17.43;58.06;100919.50;5052126;28;20048;-74
2022/05/26 07:27:19;;;;;;;1.88;0.50;;;;;;;17.36;58.61;100907.47;5050737;28;20048;-74
2022/05/26 07:29:51;;;;;;;3.45;0.45;;;;;;;17.55;58.32;100929.38;5058379;28;20541;-75
2022/05/26 07:32:19;;;;;;;1.95;0.45;;;;;;;18.10;58.68;100934.50;5048779;28;20053;-74
2022/05/26 07:34:47;;;;;;;2.10;0.60;;;;;;;18.82;55.65;100919.53;5048310;28;20136;-74
2022/05/26 07:42:44;;;;;;;3.53;0.57;;;;;;;19.10;52.97;100934.47;5046652;28;20384;-77
2022/05/26 07:45:12;;;;;;;1.92;0.63;;;;;;;19.31;52.36;100915.06;5055269;28;20049;-76
2022/05/26 07:47:39;;;;;;;2.50;0.70;;;;;;;19.52;51.54;100934.94;5051960;28;20063;-76
2022/05/26 07:50:10;;;;;;;2.53;0.68;;;;;;;19.80;51.40;100923.81;5059979;28;20045;-71
2022/05/26 07:52:36;;;;;;;2.67;0.70;;;;;;;20.40;49.09;100922.72;5050590;28;20044;-75
2022/05/26 07:55:04;;;;;;;1.33;0.52;;;;;;;20.33;48.51;100922.28;5048796;28;20052;-77
2022/05/26 07:57:30;;;;;;;1.52;0.60;;;;;;;20.29;49.20;100930.75;5054858;28;20493;-76
2022/05/26 07:59:58;;;;;;;1.48;0.45;;;;;;;20.18;48.29;100918.13;5047319;28;20079;-77
2022/05/26 08:02:25;;;;;;;1.35;0.50;;;;;;;20.01;49.79;100932.03;5048832;28;20068;-77
2022/05/26 08:04:53;;;;;;;1.05;0.45;;;;;;;20.02;49.87;100936.44;5049768;28;20052;-75
2022/05/26 08:07:20;;;;;;;2.15;0.60;;;;;;;20.20;49.24;100926.94;5049380;28;20061;-77
2022/05/26 08:09:46;;;;;;;3.13;0.65;;;;;;;20.64;49.51;100928.81;5048515;28;20072;-77
2022/05/26 08:12:14;;;;;;;1.92;0.55;;;;;;;21.37;46.23;100939.97;5051892;28;20048;-75
2022/05/26 08:14:43;;;;;;;4.70;0.82;;;;;;;21.18;46.76;100941.44;5053851;28;20554;-76
2022/05/26 08:17:15;;;;;;;3.78;0.52;;;;;;;21.12;46.57;100928.47;5044947;28;20052;-78
2022/05/26 08:19:42;;;;;;;2.40;0.70;;;;;;;21.26;46.12;100941.69;5046487;28;20056;-76
2022/05/26 08:22:09;;;;;;;3.47;0.50;;;;;;;21.52;46.25;100933.28;5052033;28;20056;-78
2022/05/26 08:24:36;;;;;;;6.22;0.70;;;;;;;21.72;45.38;100916.28;5045609;28;20072;-77
2022/05/26 08:27:03;;;;;;;1.80;0.52;;;;;;;22.00;43.60;100934.53;5038159;28;20053;-76
2022/05/26 08:29:30;;;;;;;1.95;0.68;;;;;;;21.78;43.51;100937.31;5045489;28;21227;-80
2022/05/26 08:31:57;;;;;;;2.38;1.10;;;;;;;21.95;44.16;100942.13;5046006;28;20489;-73
2022/05/26 08:34:23;;;;;;;2.47;0.70;;;;;;;22.44;43.31;100942.44;5040686;28;20045;-76
2022/05/26 08:36:50;;;;;;;1.10;0.60;;;;;;;22.08;44.35;100947.34;5038460;28;20509;-75
2022/05/26 08:39:17;;;;;;;2.58;0.68;;;;;;;21.59;43.82;100929.94;5042436;28;20114;-74
2022/05/26 08:41:49;;;;;;;1.45;0.80;;;;;;;21.46;44.72;100955.34;5051673;28;20040;-74
2022/05/26 08:44:30;;;;;;;3.15;0.85;;;;;;;21.17;45.45;100958.59;5040725;28;20078;-77
2022/05/26 08:47:03;;;;;;;3.50;0.63;;;;;;;20.85;46.19;100957.66;5044271;28;20049;-77
2022/05/26 08:49:34;;;;;;;2.92;0.85;;;;;;;20.27;48.00;100959.59;5046195;28;20037;-76
2022/05/26 08:52:02;;;;;;;2.53;0.60;;;;;;;20.02;48.94;100963.31;5052911;28;20053;-76
2022/05/26 08:54:51;;;;;;;2.08;0.60;;;;;;;19.86;49.34;100966.34;5041802;28;20041;-80
2022/05/26 08:57:28;;;;;;;3.20;0.80;;;;;;;19.49;49.50;100965.59;5049624;28;20060;-83
2022/05/26 08:59:56;;;;;;;1.73;0.75;;;;;;;19.26;50.71;100975.31;5043899;28;20044;-83
2022/05/26 09:02:37;;;;;;;2.92;0.60;;;;;;;19.21;50.21;100974.78;5039003;28;20061;-75
2022/05/26 09:05:18;;;;;;;1.27;0.57;;;;;;;19.06;50.08;100981.28;5044259;28;20044;-73
2022/05/26 09:13:41;;;;;;;3.72;0.93;;;;;;;19.02;49.74;100989.69;5045940;28;20127;-75
2022/05/26 09:16:10;;;;;;;2.63;0.93;;;;;;;18.94;49.89;100990.25;5041052;28;20076;-73
2022/05/26 09:18:38;;;;;;;1.85;0.65;;;;;;;18.81;50.32;100973.31;5048186;28;20110;-75
2022/05/26 09:21:34;;;;;;;2.13;0.70;;;;;;;18.85;49.23;101004.34;5046739;28;20041;-73
2022/05/26 09:24:20;;;;;;;2.03;0.68;;;;;;;18.87;50.13;100999.72;5034734;28;20271;-72
2022/05/26 09:26:54;;;;;;;3.60;0.82;;;;;;;18.98;49.47;100994.44;5045354;28;20048;-73
2022/05/26 09:29:36;;;;;;;2.35;0.90;;;;;;;19.25;48.58;100991.53;5047317;28;20068;-72
2022/05/26 09:32:05;;;;;;;1.90;0.90;;;;;;;19.27;47.94;100998.53;5041786;28;20088;-75
2022/05/26 09:35:18;;;;;;;2.33;0.85;;;;;;;19.34;47.62;100996.25;5042640;28;20120;-71
2022/05/26 09:37:51;;;;;;;2.83;0.70;;;;;;;19.33;48.10;100993.69;5026152;28;20068;-70
2022/05/26 09:40:27;;;;;;;2.42;0.85;;;;;;;19.60;47.36;100997.88;5035311;28;20163;-73
2022/05/26 09:43:03;;;;;;;2.55;0.60;;;;;;;19.97;47.34;101005.84;5045335;28;20575;-71
2022/05/26 09:45:46;;;;;;;3.33;0.70;;;;;;;20.17;47.02;100983.63;5042843;28;20451;-72
2022/05/26 09:48:24;;;;;;;0.90;0.70;;;;;;;20.08;47.01;100994.25;5035367;28;20063;-73
2022/05/26 09:51:02;;;;;;;2.60;0.77;;;;;;;19.77;47.30;101001.13;5046489;28;20919;-71
2022/05/26 09:53:41;;;;;;;3.95;0.70;;;;;;;19.70;47.47;101002.56;5041667;28;20057;-75
2022/05/26 09:56:26;;;;;;;1.25;0.60;;;;;;;20.08;46.57;101013.09;5039145;28;20130;-74
2022/05/26 10:02:34;;;;;;;1.23;0.77;;;;;;;20.55;45.95;101010.28;5020433;28;20087;-72
2022/05/26 10:05:13;;;;;;;1.23;0.65;;;;;;;20.46;45.91;101002.91;5046228;28;20203;-73
2022/05/26 10:08:21;;;;;;;1.92;0.60;;;;;;;20.32;46.31;101003.97;5034483;28;20062;-76
2022/05/26 10:11:09;;;;;;;2.00;0.52;;;;;;;20.57;45.47;101008.31;5027980;28;20065;-73
2022/05/26 10:13:42;;;;;;;3.20;0.80;;;;;;;20.42;45.89;101017.59;5036888;28;20109;-73
2022/05/26 10:16:23;;;;;;;1.73;0.60;;;;;;;20.05;46.46;101021.38;5042521;28;20049;-75
2022/05/26 10:18:56;;;;;;;4.03;1.10;;;;;;;19.96;47.15;101012.19;5044195;28;20048;-74
2022/05/26 10:22:13;;;;;;;4.97;0.98;;;;;;;19.90;46.53;100999.22;5044672;28;20057;-72
2022/05/26 10:25:07;;;;;;;2.53;0.80;;;;;;;20.03;46.69;101017.94;5000438;28;20081;-73
2022/05/26 10:28:00;;;;;;;8.50;0.88;;;;;;;20.04;46.84;101025.91;5054417;28;20053;-74
2022/05/26 10:30:52;;;;;;;3.40;0.70;;;;;;;20.20;46.41;101015.69;5043012;28;20095;-73
2022/05/26 10:34:10;;;;;;;4.93;1.10;;;;;;;20.47;44.77;101020.78;5024799;28;20044;-74
2022/05/26 10:37:14;;;;;;;1.42;0.80;;;;;;;20.62;45.08;101016.88;4974285;28;20076;-73
2022/05/26 10:39:55;;;;;;;2.58;0.70;;;;;;;20.72;44.67;100998.19;4962994;28;20070;-73
2022/05/26 10:42:43;;;;;;;1.05;0.70;;;;;;;20.69;44.17;101008.31;5043119;28;20141;-73
2022/05/26 10:45:24;;;;;;;1.02;0.70;;;;;;;20.88;43.82;101014.81;5043060;28;20966;-74
2022/05/26 10:48:06;;;;;;;2.22;0.60;;;;;;;20.85;43.76;101004.28;5046465;28;20111;-74
2022/05/26 10:50:59;;;;;;;0.63;0.57;;;;;;;20.77;44.64;101000.50;5036903;28;20392;-72
2022/05/26 10:53:41;;;;;;;1.85;0.70;;;;;;;20.69;43.97;101002.94;5034293;28;20098;-74
2022/05/26 10:56:09;;;;;;;1.73;0.70;;;;;;;20.55;42.84;100961.00;5022976;28;20080;-72
2022/05/26 10:58:40;;;;;;;1.75;0.50;;;;;;;20.91;43.18;101002.94;5039615;28;20514;-73
2022/05/26 11:01:19;;;;;;;1.83;0.70;;;;;;;21.13;41.97;101005.59;5044226;28;20078;-74
2022/05/26 11:03:54;;;;;;;4.43;0.70;;;;;;;21.00;42.21;101010.28;5046190;28;20060;-72
2022/05/26 11:06:26;;;;;;;2.88;0.88;;;;;;;21.02;42.27;101009.16;5038875;28;20059;-74
2022/05/26 11:09:00;;;;;;;2.55;0.60;;;;;;;20.99;42.37;101000.47;5045276;28;20081;-74
2022/05/26 11:11:33;;;;;;;1.52;0.70;;;;;;;21.10;41.88;101008.53;5045175;28;20057;-74
2022/05/26 11:17:21;;;;;;;1.73;0.60;;;;;;;20.86;42.76;101002.44;5044324;28;20052;-73
2022/05/26 11:20:01;;;;;;;2.78;0.90;;;;;;;20.69;42.47;100994.88;5035568;28;20091;-73
2022/05/26 11:22:29;;;;;;;2.75;1.17;;;;;;;20.79;42.91;101015.53;5037993;28;20056;-72
2022/05/26 11:24:58;;;;;;;1.67;0.80;;;;;;;20.82;42.94;101001.84;5038903;28;20073;-72
2022/05/26 11:27:36;;;;;;;1.67;0.82;;;;;;;20.84;42.75;100999.03;5047893;28;20068;-72
2022/05/26 11:36:07;;;;;;;3.10;1.15;;;;;;;21.10;41.42;101005.84;5049716;28;20056;-71
2022/05/26 11:38:39;;;;;;;2.65;0.88;;;;;;;21.54;40.09;100996.00;5037709;28;20496;-73
2022/05/26 11:41:14;;;;;;;1.80;0.73;;;;;;;21.46;40.69;101002.00;5037603;28;20049;-70
2022/05/26 11:44:08;;;;;;;1.63;0.73;;;;;;;21.55;39.65;100989.63;5033043;28;20062;-72
2022/05/26 11:47:31;;;;;;;2.67;0.85;;;;;;;21.39;41.42;101005.34;5020355;28;20051;-71
2022/05/26 11:50:36;;;;;;;2.35;1.05;;;;;;;21.38;41.93;101000.94;4989223;28;20096;-73
2022/05/26 11:53:44;;;;;;;2.78;1.10;;;;;;;21.67;40.92;101005.63;5019929;28;20053;-75
2022/05/26 11:56:40;;;;;;;2.63;1.20;;;;;;;21.73;39.36;101008.75;5017320;28;20120;-71
2022/05/26 11:59:42;;;;;;;1.65;0.82;;;;;;;21.66;40.42;101001.22;5015045;28;20045;-77
2022/05/26 12:02:15;;;;;;;2.40;0.90;;;;;;;21.81;40.82;100992.81;5023024;28;20064;-75
2022/05/26 12:04:45;;;;;;;1.98;1.02;;;;;;;22.04;40.05;100989.88;5014424;28;20053;-72
2022/05/26 12:07:17;;;;;;;3.92;1.00;;;;;;;22.07;40.18;100987.91;5014740;28;20114;-75
2022/05/26 12:09:50;;;;;;;3.10;0.88;;;;;;;22.03;40.81;100985.50;5012259;28;20053;-73
2022/05/26 12:12:17;;;;;;;3.33;1.02;;;;;;;21.95;39.96;100987.09;5013821;28;20057;-76
2022/05/26 12:14:46;;;;;;;1.95;0.60;;;;;;;21.88;40.37;100991.31;5019845;28;22234;-73
2022/05/26 12:17:33;;;;;;;1.60;0.77;;;;;;;21.93;40.82;100986.38;5020321;28;20042;-71
2022/05/26 12:20:12;;;;;;;4.30;0.95;;;;;;;22.00;38.30;100977.69;5015571;28;20050;-71
2022/05/26 12:22:49;;;;;;;1.50;0.90;;;;;;;22.21;38.00;100968.72;5015645;28;20544;-71
2022/05/26 12:25:37;;;;;;;2.47;0.75;;;;;;;22.54;37.66;100981.97;5003878;28;20111;-70
2022/05/26 12:28:31;;;;;;;3.08;0.65;;;;;;;22.45;36.41;100984.63;5021805;28;20057;-69
2022/05/26 12:30:58;;;;;;;2.80;0.63;;;;;;;22.32;36.89;100976.75;5016944;28;20045;-69
2022/05/26 12:33:54;;;;;;;2.38;0.80;;;;;;;22.35;37.77;100977.31;5023007;28;20716;-70
2022/05/26 12:36:56;;;;;;;2.22;1.10;;;;;;;22.27;38.02;100978.97;5017756;28;20669;-69